sensor_id;sensor_type;location;lat;lon;timestamp;temperature;humidity
7159;DHT22;63175;52.374;13.132;2023-08-20T00:01:06;27.10;99.90
7159;DHT22;63175;52.374;13.132;2023-08-20T00:03:34;27.10;99.90
7159;DHT22;63175;52.374;13.132;2023-08-20T00:06:01;27.00;99.90
7159;DHT22;63175;52.374;13.132;2023-08-20T00:08:29;27.00;99.90
7159;DHT22;63175;52.374;13.132;2023-08-20T00:10:57;26.90;99.90
7159;DHT22;63175;52.374;13.132;2023-08-20T00:13:24;26.90;99.90
7159;DHT22;63175;52.374;13.132;2023-08-20T00:15:51;26.80;99.90
7159;DHT22;63175;52.374;13.132;2023-08-20T00:18:18;26.70;99.90
7159;DHT22;63175;52.374;13.132;2023-08-20T00:20:46;26.60;99.90
7159;DHT22;63175;52.374;13.132;2023-08-20T00:23:13;26.60;99.90
7159;DHT22;63175;52.374;13.132;2023-08-20T00:25:41;26.50;99.90
7159;DHT22;63175;52.374;13.132;2023-08-20T00:28:09;26.50;99.90
7159;DHT22;63175;52.374;13.132;2023-08-20T00:30:36;26.50;99.90
7159;DHT22;63175;52.374;13.132;2023-08-20T00:33:03;26.50;99.90
7159;DHT22;63175;52.374;13.132;2023-08-20T00:35:30;26.50;99.90
7159;DHT22;63175;52.374;13.132;2023-08-20T00:37:57;26.50;99.90
7159;DHT22;63175;52.374;13.132;2023-08-20T00:40:24;26.50;99.90
7159;DHT22;63175;52.374;13.132;2023-08-20T00:42:51;26.50;99.90
7159;DHT22;63175;52.374;13.132;2023-08-20T00:45:19;26.40;99.90
7159;DHT22;63175;52.374;13.132;2023-08-20T00:47:46;26.40;99.90
7159;DHT22;63175;52.374;13.132;2023-08-20T00:50:14;26.50;99.90
7159;DHT22;63175;52.374;13.132;2023-08-20T00:52:40;26.40;99.90
7159;DHT22;63175;52.374;13.132;2023-08-20T00:55:09;26.40;99.90
7159;DHT22;63175;52.374;13.132;2023-08-20T00:57:37;26.40;99.90
7159;DHT22;63175;52.374;13.132;2023-08-20T01:00:05;26.40;99.90
7159;DHT22;63175;52.374;13.132;2023-08-20T01:02:36;26.30;99.90
7159;DHT22;63175;52.374;13.132;2023-08-20T01:05:04;26.30;99.90
7159;DHT22;63175;52.374;13.132;2023-08-20T01:07:49;26.30;99.90
7159;DHT22;63175;52.374;13.132;2023-08-20T01:10:27;26.20;99.90
7159;DHT22;63175;52.374;13.132;2023-08-20T01:12:56;26.20;99.90
7159;DHT22;63175;52.374;13.132;2023-08-20T01:15:23;26.20;99.90
7159;DHT22;63175;52.374;13.132;2023-08-20T01:17:52;26.20;99.90
7159;DHT22;63175;52.374;13.132;2023-08-20T01:20:19;26.20;99.90
7159;DHT22;63175;52.374;13.132;2023-08-20T01:26:13;26.20;99.90
7159;DHT22;63175;52.374;13.132;2023-08-20T01:28:43;26.10;99.90
7159;DHT22;63175;52.374;13.132;2023-08-20T01:31:12;26.10;99.90
7159;DHT22;63175;52.374;13.132;2023-08-20T01:33:39;26.10;99.90
7159;DHT22;63175;52.374;13.132;2023-08-20T01:36:07;26.10;99.90
7159;DHT22;63175;52.374;13.132;2023-08-20T01:38:35;26.10;99.90
7159;DHT22;63175;52.374;13.132;2023-08-20T01:41:02;26.00;99.90
7159;DHT22;63175;52.374;13.132;2023-08-20T01:43:29;26.00;99.90
7159;DHT22;63175;52.374;13.132;2023-08-20T01:45:57;25.90;99.90
7159;DHT22;63175;52.374;13.132;2023-08-20T01:48:24;25.90;99.90
7159;DHT22;63175;52.374;13.132;2023-08-20T01:50:51;25.90;99.90
7159;DHT22;63175;52.374;13.132;2023-08-20T01:53:18;25.90;99.90
7159;DHT22;63175;52.374;13.132;2023-08-20T01:55:45;25.90;99.90
7159;DHT22;63175;52.374;13.132;2023-08-20T01:58:12;25.90;99.90
7159;DHT22;63175;52.374;13.132;2023-08-20T02:00:39;25.90;99.90
7159;DHT22;63175;52.374;13.132;2023-08-20T02:03:07;25.90;99.90
7159;DHT22;63175;52.374;13.132;2023-08-20T02:05:34;25.90;99.90
7159;DHT22;63175;52.374;13.132;2023-08-20T02:08:01;25.80;99.90
7159;DHT22;63175;52.374;13.132;2023-08-20T02:10:28;25.90;99.90
7159;DHT22;63175;52.374;13.132;2023-08-20T02:12:54;25.80;99.90
7159;DHT22;63175;52.374;13.132;2023-08-20T02:15:21;25.80;99.90
7159;DHT22;63175;52.374;13.132;2023-08-20T02:17:48;25.70;99.90
7159;DHT22;63175;52.374;13.132;2023-08-20T02:20:16;25.70;99.90
7159;DHT22;63175;52.374;13.132;2023-08-20T02:22:43;25.70;99.90
7159;DHT22;63175;52.374;13.132;2023-08-20T02:25:10;25.60;99.90
7159;DHT22;63175;52.374;13.132;2023-08-20T02:27:37;25.60;99.90
7159;DHT22;63175;52.374;13.132;2023-08-20T02:30:05;25.60;99.90
7159;DHT22;63175;52.374;13.132;2023-08-20T02:32:32;25.60;99.90
7159;DHT22;63175;52.374;13.132;2023-08-20T02:34:59;25.60;99.90
7159;DHT22;63175;52.374;13.132;2023-08-20T02:37:27;25.60;99.90
7159;DHT22;63175;52.374;13.132;2023-08-20T02:39:54;25.50;99.90
7159;DHT22;63175;52.374;13.132;2023-08-20T02:42:21;25.50;99.90
7159;DHT22;63175;52.374;13.132;2023-08-20T02:44:48;25.50;99.90
7159;DHT22;63175;52.374;13.132;2023-08-20T02:47:15;25.40;99.90
7159;DHT22;63175;52.374;13.132;2023-08-20T02:49:41;25.40;99.90
7159;DHT22;63175;52.374;13.132;2023-08-20T02:52:08;25.40;99.90
7159;DHT22;63175;52.374;13.132;2023-08-20T02:54:36;25.30;99.90
7159;DHT22;63175;52.374;13.132;2023-08-20T02:57:03;25.30;99.90
7159;DHT22;63175;52.374;13.132;2023-08-20T02:59:30;25.30;99.90
7159;DHT22;63175;52.374;13.132;2023-08-20T03:01:57;25.30;99.90
7159;DHT22;63175;52.374;13.132;2023-08-20T03:04:24;25.30;99.90
7159;DHT22;63175;52.374;13.132;2023-08-20T03:06:51;25.30;99.90
7159;DHT22;63175;52.374;13.132;2023-08-20T03:09:18;25.20;99.90
7159;DHT22;63175;52.374;13.132;2023-08-20T03:11:46;25.20;99.90
7159;DHT22;63175;52.374;13.132;2023-08-20T03:14:13;25.20;99.90
7159;DHT22;63175;52.374;13.132;2023-08-20T03:16:39;25.10;99.90
7159;DHT22;63175;52.374;13.132;2023-08-20T03:19:06;25.10;99.90
7159;DHT22;63175;52.374;13.132;2023-08-20T03:21:33;25.10;99.90
7159;DHT22;63175;52.374;13.132;2023-08-20T03:24:00;25.00;99.90
7159;DHT22;63175;52.374;13.132;2023-08-20T03:26:27;25.00;99.90
7159;DHT22;63175;52.374;13.132;2023-08-20T03:28:55;25.00;99.90
7159;DHT22;63175;52.374;13.132;2023-08-20T03:31:22;25.00;99.90
7159;DHT22;63175;52.374;13.132;2023-08-20T03:33:48;25.00;99.90
7159;DHT22;63175;52.374;13.132;2023-08-20T03:36:15;25.00;99.90
7159;DHT22;63175;52.374;13.132;2023-08-20T03:38:42;24.90;99.90
7159;DHT22;63175;52.374;13.132;2023-08-20T03:41:09;24.80;99.90
7159;DHT22;63175;52.374;13.132;2023-08-20T03:43:36;24.80;99.90
7159;DHT22;63175;52.374;13.132;2023-08-20T03:46:04;24.80;99.90
7159;DHT22;63175;52.374;13.132;2023-08-20T03:48:31;24.80;99.90
7159;DHT22;63175;52.374;13.132;2023-08-20T03:50:58;24.80;99.90
7159;DHT22;63175;52.374;13.132;2023-08-20T03:53:24;24.70;99.90
7159;DHT22;63175;52.374;13.132;2023-08-20T03:55:51;24.70;99.90
7159;DHT22;63175;52.374;13.132;2023-08-20T03:58:18;24.70;99.90
7159;DHT22;63175;52.374;13.132;2023-08-20T04:00:45;24.70;99.90
7159;DHT22;63175;52.374;13.132;2023-08-20T04:03:13;24.60;99.90
7159;DHT22;63175;52.374;13.132;2023-08-20T04:05:44;24.60;99.90
7159;DHT22;63175;52.374;13.132;2023-08-20T04:08:11;24.60;99.90
7159;DHT22;63175;52.374;13.132;2023-08-20T04:10:42;24.60;99.90
7159;DHT22;63175;52.374;13.132;2023-08-20T04:13:10;24.50;99.90
7159;DHT22;63175;52.374;13.132;2023-08-20T04:15:36;24.50;99.90
7159;DHT22;63175;52.374;13.132;2023-08-20T04:18:04;24.50;99.90
7159;DHT22;63175;52.374;13.132;2023-08-20T04:20:32;24.40;99.90
7159;DHT22;63175;52.374;13.132;2023-08-20T04:22:59;24.40;99.90
7159;DHT22;63175;52.374;13.132;2023-08-20T04:25:26;24.40;99.90
7159;DHT22;63175;52.374;13.132;2023-08-20T04:27:53;24.40;99.90
7159;DHT22;63175;52.374;13.132;2023-08-20T04:30:20;24.40;99.90
7159;DHT22;63175;52.374;13.132;2023-08-20T04:32:47;24.40;99.90
7159;DHT22;63175;52.374;13.132;2023-08-20T04:35:14;24.40;99.90
7159;DHT22;63175;52.374;13.132;2023-08-20T04:37:42;24.40;99.90
7159;DHT22;63175;52.374;13.132;2023-08-20T04:40:10;24.40;99.90
7159;DHT22;63175;52.374;13.132;2023-08-20T04:42:37;24.40;99.90
7159;DHT22;63175;52.374;13.132;2023-08-20T04:45:05;24.40;99.90
7159;DHT22;63175;52.374;13.132;2023-08-20T04:47:32;24.40;99.90
7159;DHT22;63175;52.374;13.132;2023-08-20T04:49:59;24.40;99.90
7159;DHT22;63175;52.374;13.132;2023-08-20T04:52:26;24.40;99.90
7159;DHT22;63175;52.374;13.132;2023-08-20T04:54:55;24.40;99.90
7159;DHT22;63175;52.374;13.132;2023-08-20T04:57:21;24.40;99.90
7159;DHT22;63175;52.374;13.132;2023-08-20T04:59:48;24.40;99.90
7159;DHT22;63175;52.374;13.132;2023-08-20T05:02:15;24.50;99.90
7159;DHT22;63175;52.374;13.132;2023-08-20T05:04:42;24.40;99.90
7159;DHT22;63175;52.374;13.132;2023-08-20T05:07:09;24.40;99.90
7159;DHT22;63175;52.374;13.132;2023-08-20T05:09:36;24.50;99.90
7159;DHT22;63175;52.374;13.132;2023-08-20T05:12:04;24.50;99.90
7159;DHT22;63175;52.374;13.132;2023-08-20T05:14:31;24.50;99.90
7159;DHT22;63175;52.374;13.132;2023-08-20T05:16:58;24.50;99.90
7159;DHT22;63175;52.374;13.132;2023-08-20T05:19:25;24.50;99.90
7159;DHT22;63175;52.374;13.132;2023-08-20T05:21:52;24.50;99.90
7159;DHT22;63175;52.374;13.132;2023-08-20T05:24:21;24.50;99.90
7159;DHT22;63175;52.374;13.132;2023-08-20T05:27:04;24.50;99.90
7159;DHT22;63175;52.374;13.132;2023-08-20T05:29:31;24.50;99.90
7159;DHT22;63175;52.374;13.132;2023-08-20T05:31:58;24.50;99.90
7159;DHT22;63175;52.374;13.132;2023-08-20T05:34:24;24.50;99.90
7159;DHT22;63175;52.374;13.132;2023-08-20T05:36:51;24.50;99.90
7159;DHT22;63175;52.374;13.132;2023-08-20T05:39:18;24.50;99.90
7159;DHT22;63175;52.374;13.132;2023-08-20T05:41:45;24.50;99.90
7159;DHT22;63175;52.374;13.132;2023-08-20T05:44:13;24.60;99.90
7159;DHT22;63175;52.374;13.132;2023-08-20T05:46:40;24.60;99.90
7159;DHT22;63175;52.374;13.132;2023-08-20T05:49:07;24.70;99.90
7159;DHT22;63175;52.374;13.132;2023-08-20T05:51:33;24.70;99.90
7159;DHT22;63175;52.374;13.132;2023-08-20T05:54:00;24.70;99.90
7159;DHT22;63175;52.374;13.132;2023-08-20T05:56:27;24.70;99.90
7159;DHT22;63175;52.374;13.132;2023-08-20T05:58:54;24.70;99.90
7159;DHT22;63175;52.374;13.132;2023-08-20T06:01:23;24.70;99.90
7159;DHT22;63175;52.374;13.132;2023-08-20T06:03:49;24.60;99.90
7159;DHT22;63175;52.374;13.132;2023-08-20T06:06:16;24.70;99.90
7159;DHT22;63175;52.374;13.132;2023-08-20T06:08:43;24.70;99.90
7159;DHT22;63175;52.374;13.132;2023-08-20T06:11:10;24.70;99.90
7159;DHT22;63175;52.374;13.132;2023-08-20T06:13:37;24.60;99.90
7159;DHT22;63175;52.374;13.132;2023-08-20T06:16:04;24.70;99.90
7159;DHT22;63175;52.374;13.132;2023-08-20T06:18:33;24.70;99.90
7159;DHT22;63175;52.374;13.132;2023-08-20T06:21:00;24.70;99.90
7159;DHT22;63175;52.374;13.132;2023-08-20T06:23:26;24.80;99.90
7159;DHT22;63175;52.374;13.132;2023-08-20T06:25:53;24.90;99.90
7159;DHT22;63175;52.374;13.132;2023-08-20T06:28:20;25.00;99.90
7159;DHT22;63175;52.374;13.132;2023-08-20T06:30:47;25.20;99.90
7159;DHT22;63175;52.374;13.132;2023-08-20T06:33:14;25.30;99.90
7159;DHT22;63175;52.374;13.132;2023-08-20T06:35:42;25.40;99.90
7159;DHT22;63175;52.374;13.132;2023-08-20T06:38:09;25.50;99.90
7159;DHT22;63175;52.374;13.132;2023-08-20T06:40:36;25.60;99.90
7159;DHT22;63175;52.374;13.132;2023-08-20T06:43:03;25.60;99.90
7159;DHT22;63175;52.374;13.132;2023-08-20T06:45:30;25.60;99.90
7159;DHT22;63175;52.374;13.132;2023-08-20T06:47:57;25.60;99.90
7159;DHT22;63175;52.374;13.132;2023-08-20T06:50:24;25.60;99.90
7159;DHT22;63175;52.374;13.132;2023-08-20T06:52:52;25.60;99.90
7159;DHT22;63175;52.374;13.132;2023-08-20T06:55:19;25.60;99.90
7159;DHT22;63175;52.374;13.132;2023-08-20T06:57:46;25.50;99.90
7159;DHT22;63175;52.374;13.132;2023-08-20T07:00:13;25.40;99.90
7159;DHT22;63175;52.374;13.132;2023-08-20T07:02:40;25.40;99.90
7159;DHT22;63175;52.374;13.132;2023-08-20T07:05:07;25.40;99.90
7159;DHT22;63175;52.374;13.132;2023-08-20T07:07:35;25.60;99.90
7159;DHT22;63175;52.374;13.132;2023-08-20T07:10:04;25.70;99.90
7159;DHT22;63175;52.374;13.132;2023-08-20T07:12:31;25.90;99.90
7159;DHT22;63175;52.374;13.132;2023-08-20T07:14:58;26.10;99.70
7159;DHT22;63175;52.374;13.132;2023-08-20T07:17:24;26.30;99.00
7159;DHT22;63175;52.374;13.132;2023-08-20T07:19:51;26.50;98.70
7159;DHT22;63175;52.374;13.132;2023-08-20T07:22:18;26.60;97.70
7159;DHT22;63175;52.374;13.132;2023-08-20T07:24:45;26.70;96.80
7159;DHT22;63175;52.374;13.132;2023-08-20T07:27:13;26.80;96.40
7159;DHT22;63175;52.374;13.132;2023-08-20T07:29:41;27.00;96.30
7159;DHT22;63175;52.374;13.132;2023-08-20T07:32:08;27.10;95.40
7159;DHT22;63175;52.374;13.132;2023-08-20T07:34:35;27.30;95.00
7159;DHT22;63175;52.374;13.132;2023-08-20T07:37:02;27.50;94.30
7159;DHT22;63175;52.374;13.132;2023-08-20T07:39:30;27.60;93.80
7159;DHT22;63175;52.374;13.132;2023-08-20T07:41:57;27.80;93.60
7159;DHT22;63175;52.374;13.132;2023-08-20T07:44:25;27.90;93.00
7159;DHT22;63175;52.374;13.132;2023-08-20T07:46:53;28.10;92.60
7159;DHT22;63175;52.374;13.132;2023-08-20T07:49:20;28.30;92.10
7159;DHT22;63175;52.374;13.132;2023-08-20T07:51:47;28.40;91.90
7159;DHT22;63175;52.374;13.132;2023-08-20T07:54:14;28.60;91.90
7159;DHT22;63175;52.374;13.132;2023-08-20T07:56:40;28.70;91.30
7159;DHT22;63175;52.374;13.132;2023-08-20T07:59:07;28.80;91.20
7159;DHT22;63175;52.374;13.132;2023-08-20T08:01:35;29.00;90.80
7159;DHT22;63175;52.374;13.132;2023-08-20T08:04:03;29.10;90.40
7159;DHT22;63175;52.374;13.132;2023-08-20T08:06:29;29.20;90.00
7159;DHT22;63175;52.374;13.132;2023-08-20T08:08:56;29.40;89.70
7159;DHT22;63175;52.374;13.132;2023-08-20T08:11:23;29.50;89.00
7159;DHT22;63175;52.374;13.132;2023-08-20T08:13:51;29.60;87.80
7159;DHT22;63175;52.374;13.132;2023-08-20T08:16:18;29.80;88.30
7159;DHT22;63175;52.374;13.132;2023-08-20T08:18:46;29.90;86.80
7159;DHT22;63175;52.374;13.132;2023-08-20T08:21:13;30.10;85.80
7159;DHT22;63175;52.374;13.132;2023-08-20T08:23:40;30.30;84.90
7159;DHT22;63175;52.374;13.132;2023-08-20T08:26:06;30.50;83.80
7159;DHT22;63175;52.374;13.132;2023-08-20T08:28:33;30.80;82.70
7159;DHT22;63175;52.374;13.132;2023-08-20T08:31:00;31.20;81.10
7159;DHT22;63175;52.374;13.132;2023-08-20T08:33:27;31.80;79.10
7159;DHT22;63175;52.374;13.132;2023-08-20T08:35:55;32.20;76.80
7159;DHT22;63175;52.374;13.132;2023-08-20T08:38:22;32.20;75.10
7159;DHT22;63175;52.374;13.132;2023-08-20T08:40:49;32.00;74.20
7159;DHT22;63175;52.374;13.132;2023-08-20T08:43:16;31.80;74.60
7159;DHT22;63175;52.374;13.132;2023-08-20T08:45:46;31.80;75.10
7159;DHT22;63175;52.374;13.132;2023-08-20T08:48:14;32.00;74.50
7159;DHT22;63175;52.374;13.132;2023-08-20T08:50:41;32.20;73.20
7159;DHT22;63175;52.374;13.132;2023-08-20T08:53:10;32.50;72.20
7159;DHT22;63175;52.374;13.132;2023-08-20T08:55:37;32.50;71.30
7159;DHT22;63175;52.374;13.132;2023-08-20T08:58:04;32.80;70.70
7159;DHT22;63175;52.374;13.132;2023-08-20T09:00:31;33.20;69.90
7159;DHT22;63175;52.374;13.132;2023-08-20T09:02:58;33.50;68.50
7159;DHT22;63175;52.374;13.132;2023-08-20T09:05:25;33.50;67.10
7159;DHT22;63175;52.374;13.132;2023-08-20T09:07:55;33.30;66.70
7159;DHT22;63175;52.374;13.132;2023-08-20T09:10:25;33.00;66.80
7159;DHT22;63175;52.374;13.132;2023-08-20T09:12:54;33.30;66.20
7159;DHT22;63175;52.374;13.132;2023-08-20T09:15:21;34.20;64.30
7159;DHT22;63175;52.374;13.132;2023-08-20T09:17:48;35.30;60.40
7159;DHT22;63175;52.374;13.132;2023-08-20T09:20:15;36.70;57.50
7159;DHT22;63175;52.374;13.132;2023-08-20T09:22:48;38.40;53.20
7159;DHT22;63175;52.374;13.132;2023-08-20T09:25:15;40.00;49.40
7159;DHT22;63175;52.374;13.132;2023-08-20T09:27:44;40.90;47.20
7159;DHT22;63175;52.374;13.132;2023-08-20T09:30:18;41.50;45.80
7159;DHT22;63175;52.374;13.132;2023-08-20T09:32:46;42.30;43.90
7159;DHT22;63175;52.374;13.132;2023-08-20T09:35:28;43.10;42.50
7159;DHT22;63175;52.374;13.132;2023-08-20T09:37:58;43.80;41.10
7159;DHT22;63175;52.374;13.132;2023-08-20T09:40:26;44.50;39.30
7159;DHT22;63175;52.374;13.132;2023-08-20T09:42:56;45.10;38.20
7159;DHT22;63175;52.374;13.132;2023-08-20T09:45:24;45.50;37.30
7159;DHT22;63175;52.374;13.132;2023-08-20T09:47:55;45.60;37.10
7159;DHT22;63175;52.374;13.132;2023-08-20T09:50:23;45.90;36.40
7159;DHT22;63175;52.374;13.132;2023-08-20T09:52:56;45.70;36.10
7159;DHT22;63175;52.374;13.132;2023-08-20T09:55:30;45.80;35.80
7159;DHT22;63175;52.374;13.132;2023-08-20T09:57:59;46.00;35.20
7159;DHT22;63175;52.374;13.132;2023-08-20T10:00:28;46.70;35.00
7159;DHT22;63175;52.374;13.132;2023-08-20T10:02:55;47.50;33.50
7159;DHT22;63175;52.374;13.132;2023-08-20T10:05:23;48.30;33.10
7159;DHT22;63175;52.374;13.132;2023-08-20T10:07:50;49.10;31.90
7159;DHT22;63175;52.374;13.132;2023-08-20T10:10:18;49.80;31.10
7159;DHT22;63175;52.374;13.132;2023-08-20T10:12:45;50.20;30.40
7159;DHT22;63175;52.374;13.132;2023-08-20T10:15:15;50.60;30.00
7159;DHT22;63175;52.374;13.132;2023-08-20T10:17:44;51.20;29.60
7159;DHT22;63175;52.374;13.132;2023-08-20T10:20:13;51.70;29.10
7159;DHT22;63175;52.374;13.132;2023-08-20T10:22:42;51.80;28.80
7159;DHT22;63175;52.374;13.132;2023-08-20T10:25:11;52.10;28.70
7159;DHT22;63175;52.374;13.132;2023-08-20T10:27:39;52.20;28.50
7159;DHT22;63175;52.374;13.132;2023-08-20T10:30:10;52.50;28.20
7159;DHT22;63175;52.374;13.132;2023-08-20T10:32:46;52.40;28.10
7159;DHT22;63175;52.374;13.132;2023-08-20T10:35:15;52.70;28.10
7159;DHT22;63175;52.374;13.132;2023-08-20T10:38:01;53.10;27.60
7159;DHT22;63175;52.374;13.132;2023-08-20T10:40:56;53.30;27.10
7159;DHT22;63175;52.374;13.132;2023-08-20T10:43:30;53.30;27.20
7159;DHT22;63175;52.374;13.132;2023-08-20T10:46:08;53.50;27.00
7159;DHT22;63175;52.374;13.132;2023-08-20T10:48:37;53.40;27.00
7159;DHT22;63175;52.374;13.132;2023-08-20T10:51:10;53.30;26.60
7159;DHT22;63175;52.374;13.132;2023-08-20T10:53:37;52.90;26.80
7159;DHT22;63175;52.374;13.132;2023-08-20T10:56:11;52.70;27.10
7159;DHT22;63175;52.374;13.132;2023-08-20T10:58:41;52.70;27.10
7159;DHT22;63175;52.374;13.132;2023-08-20T11:01:15;53.00;27.00
7159;DHT22;63175;52.374;13.132;2023-08-20T11:03:46;53.30;26.90
7159;DHT22;63175;52.374;13.132;2023-08-20T11:06:15;53.70;26.90
7159;DHT22;63175;52.374;13.132;2023-08-20T11:08:42;54.10;26.60
7159;DHT22;63175;52.374;13.132;2023-08-20T11:11:09;54.30;26.50
7159;DHT22;63175;52.374;13.132;2023-08-20T11:13:37;54.20;26.40
7159;DHT22;63175;52.374;13.132;2023-08-20T11:16:05;53.90;26.60
7159;DHT22;63175;52.374;13.132;2023-08-20T11:18:33;53.30;27.00
7159;DHT22;63175;52.374;13.132;2023-08-20T11:21:01;52.80;27.40
7159;DHT22;63175;52.374;13.132;2023-08-20T11:23:29;51.90;27.70
7159;DHT22;63175;52.374;13.132;2023-08-20T11:25:56;51.00;28.10
7159;DHT22;63175;52.374;13.132;2023-08-20T11:28:25;50.30;28.50
7159;DHT22;63175;52.374;13.132;2023-08-20T11:30:55;49.80;28.70
7159;DHT22;63175;52.374;13.132;2023-08-20T11:33:23;49.50;28.40
7159;DHT22;63175;52.374;13.132;2023-08-20T11:35:52;49.50;28.00
7159;DHT22;63175;52.374;13.132;2023-08-20T11:38:22;49.50;27.80
7159;DHT22;63175;52.374;13.132;2023-08-20T11:40:49;49.80;27.20
7159;DHT22;63175;52.374;13.132;2023-08-20T11:43:17;50.20;27.00
7159;DHT22;63175;52.374;13.132;2023-08-20T11:45:45;50.60;26.60
7159;DHT22;63175;52.374;13.132;2023-08-20T11:48:12;51.10;26.40
7159;DHT22;63175;52.374;13.132;2023-08-20T11:50:40;51.50;26.10
7159;DHT22;63175;52.374;13.132;2023-08-20T11:53:08;51.80;25.90
7159;DHT22;63175;52.374;13.132;2023-08-20T11:55:38;52.30;25.60
7159;DHT22;63175;52.374;13.132;2023-08-20T11:58:05;52.60;25.30
7159;DHT22;63175;52.374;13.132;2023-08-20T12:00:33;52.90;25.10
7159;DHT22;63175;52.374;13.132;2023-08-20T12:03:02;53.30;24.70
7159;DHT22;63175;52.374;13.132;2023-08-20T12:05:29;53.60;24.20
7159;DHT22;63175;52.374;13.132;2023-08-20T12:07:57;53.60;24.10
7159;DHT22;63175;52.374;13.132;2023-08-20T12:10:25;53.70;24.00
7159;DHT22;63175;52.374;13.132;2023-08-20T12:12:54;54.10;24.00
7159;DHT22;63175;52.374;13.132;2023-08-20T12:15:22;54.50;23.70
7159;DHT22;63175;52.374;13.132;2023-08-20T12:17:57;54.80;23.40
7159;DHT22;63175;52.374;13.132;2023-08-20T12:20:26;55.20;23.30
7159;DHT22;63175;52.374;13.132;2023-08-20T12:22:53;55.20;23.50
7159;DHT22;63175;52.374;13.132;2023-08-20T12:25:20;54.90;23.70
7159;DHT22;63175;52.374;13.132;2023-08-20T12:27:46;53.90;24.20
7159;DHT22;63175;52.374;13.132;2023-08-20T12:30:15;52.20;24.70
7159;DHT22;63175;52.374;13.132;2023-08-20T12:32:42;50.00;25.70
7159;DHT22;63175;52.374;13.132;2023-08-20T12:35:08;48.20;26.70
7159;DHT22;63175;52.374;13.132;2023-08-20T12:37:35;46.40;27.90
7159;DHT22;63175;52.374;13.132;2023-08-20T12:40:03;45.10;29.20
7159;DHT22;63175;52.374;13.132;2023-08-20T12:42:33;43.80;29.90
7159;DHT22;63175;52.374;13.132;2023-08-20T12:45:00;42.50;30.80
7159;DHT22;63175;52.374;13.132;2023-08-20T12:47:28;41.40;31.70
7159;DHT22;63175;52.374;13.132;2023-08-20T12:49:55;40.60;32.90
7159;DHT22;63175;52.374;13.132;2023-08-20T12:52:21;40.00;33.70
7159;DHT22;63175;52.374;13.132;2023-08-20T12:54:49;39.60;35.10
7159;DHT22;63175;52.374;13.132;2023-08-20T12:57:17;39.10;34.50
7159;DHT22;63175;52.374;13.132;2023-08-20T12:59:44;38.80;35.30
7159;DHT22;63175;52.374;13.132;2023-08-20T13:02:11;38.70;36.00
7159;DHT22;63175;52.374;13.132;2023-08-20T13:04:40;38.70;36.00
7159;DHT22;63175;52.374;13.132;2023-08-20T13:07:07;38.70;36.10
7159;DHT22;63175;52.374;13.132;2023-08-20T13:09:35;38.80;36.00
7159;DHT22;63175;52.374;13.132;2023-08-20T13:12:02;38.70;36.10
7159;DHT22;63175;52.374;13.132;2023-08-20T13:14:31;38.60;36.20
7159;DHT22;63175;52.374;13.132;2023-08-20T13:16:59;38.60;36.10
7159;DHT22;63175;52.374;13.132;2023-08-20T13:19:25;38.60;36.30
7159;DHT22;63175;52.374;13.132;2023-08-20T13:21:54;38.40;36.70
7159;DHT22;63175;52.374;13.132;2023-08-20T13:24:20;38.40;36.50
7159;DHT22;63175;52.374;13.132;2023-08-20T13:26:47;38.50;36.80
7159;DHT22;63175;52.374;13.132;2023-08-20T13:29:14;38.60;36.70
7159;DHT22;63175;52.374;13.132;2023-08-20T13:31:41;38.90;36.60
7159;DHT22;63175;52.374;13.132;2023-08-20T13:34:08;39.10;36.40
7159;DHT22;63175;52.374;13.132;2023-08-20T13:36:34;39.10;36.30
7159;DHT22;63175;52.374;13.132;2023-08-20T13:39:03;38.80;36.40
7159;DHT22;63175;52.374;13.132;2023-08-20T13:41:30;38.50;37.00
7159;DHT22;63175;52.374;13.132;2023-08-20T13:43:57;38.20;37.70
7159;DHT22;63175;52.374;13.132;2023-08-20T13:46:24;37.90;37.90
7159;DHT22;63175;52.374;13.132;2023-08-20T13:48:51;37.70;38.10
7159;DHT22;63175;52.374;13.132;2023-08-20T13:51:17;37.80;38.20
7159;DHT22;63175;52.374;13.132;2023-08-20T13:53:44;37.80;38.20
7159;DHT22;63175;52.374;13.132;2023-08-20T13:56:12;37.70;38.20
7159;DHT22;63175;52.374;13.132;2023-08-20T13:58:39;37.40;38.30
7159;DHT22;63175;52.374;13.132;2023-08-20T14:01:06;37.00;38.70
7159;DHT22;63175;52.374;13.132;2023-08-20T14:03:33;36.80;39.20
7159;DHT22;63175;52.374;13.132;2023-08-20T14:06:00;36.90;39.70
7159;DHT22;63175;52.374;13.132;2023-08-20T14:08:27;37.10;39.70
7159;DHT22;63175;52.374;13.132;2023-08-20T14:10:53;37.40;39.30
7159;DHT22;63175;52.374;13.132;2023-08-20T14:13:22;37.70;38.60
7159;DHT22;63175;52.374;13.132;2023-08-20T14:15:48;37.80;38.50
7159;DHT22;63175;52.374;13.132;2023-08-20T14:18:15;38.00;38.10
7159;DHT22;63175;52.374;13.132;2023-08-20T14:20:42;38.40;37.50
7159;DHT22;63175;52.374;13.132;2023-08-20T14:23:09;38.80;37.00
7159;DHT22;63175;52.374;13.132;2023-08-20T14:25:36;38.90;36.30
7159;DHT22;63175;52.374;13.132;2023-08-20T14:28:06;38.80;36.00
7159;DHT22;63175;52.374;13.132;2023-08-20T14:30:37;38.70;35.90
7159;DHT22;63175;52.374;13.132;2023-08-20T14:33:05;38.50;36.20
7159;DHT22;63175;52.374;13.132;2023-08-20T14:35:32;38.10;36.40
7159;DHT22;63175;52.374;13.132;2023-08-20T14:37:59;37.80;36.70
7159;DHT22;63175;52.374;13.132;2023-08-20T14:40:26;37.60;36.80
7159;DHT22;63175;52.374;13.132;2023-08-20T14:42:53;37.50;36.90
7159;DHT22;63175;52.374;13.132;2023-08-20T14:45:20;37.30;37.30
7159;DHT22;63175;52.374;13.132;2023-08-20T14:47:48;37.10;37.50
7159;DHT22;63175;52.374;13.132;2023-08-20T14:50:15;36.80;38.00
7159;DHT22;63175;52.374;13.132;2023-08-20T14:52:41;36.70;38.10
7159;DHT22;63175;52.374;13.132;2023-08-20T14:55:08;36.70;38.30
7159;DHT22;63175;52.374;13.132;2023-08-20T14:57:36;36.60;38.50
7159;DHT22;63175;52.374;13.132;2023-08-20T15:00:04;36.50;38.50
7159;DHT22;63175;52.374;13.132;2023-08-20T15:02:34;36.50;38.70
7159;DHT22;63175;52.374;13.132;2023-08-20T15:05:02;36.50;38.80
7159;DHT22;63175;52.374;13.132;2023-08-20T15:07:29;36.40;38.90
7159;DHT22;63175;52.374;13.132;2023-08-20T15:09:56;36.30;39.10
7159;DHT22;63175;52.374;13.132;2023-08-20T15:12:23;36.20;39.20
7159;DHT22;63175;52.374;13.132;2023-08-20T15:14:50;36.10;39.20
7159;DHT22;63175;52.374;13.132;2023-08-20T15:17:17;36.00;39.30
7159;DHT22;63175;52.374;13.132;2023-08-20T15:19:44;35.80;39.50
7159;DHT22;63175;52.374;13.132;2023-08-20T15:22:13;35.70;39.40
7159;DHT22;63175;52.374;13.132;2023-08-20T15:24:40;35.60;39.80
7159;DHT22;63175;52.374;13.132;2023-08-20T15:27:07;35.50;40.00
7159;DHT22;63175;52.374;13.132;2023-08-20T15:29:34;35.40;40.00
7159;DHT22;63175;52.374;13.132;2023-08-20T15:32:01;35.40;40.30
7159;DHT22;63175;52.374;13.132;2023-08-20T15:34:30;35.30;40.60
7159;DHT22;63175;52.374;13.132;2023-08-20T15:36:57;35.20;40.70